Time;durP1;ratioP1;P1;durP2;ratioP2;P2;SDS_P1;SDS_P2;PMS_P1;PMS_P2;Temp;Humidity;BMP_temperature;BMP_pressure;BME280_temperature;BME280_humidity;BME280_pressure;Samples;Min_cycle;Max_cycle;Signal;HPM_P1;HPM_P2
2022/05/22 06:46:10;;;;;;;;;6.00;6.00;;;;;20.54;100.00;100118.09;6391208;22;45254;-91
2022/05/22 06:48:35;;;;;;;;;8.33;6.00;;;;;20.67;100.00;100109.13;6374344;22;45861;-93
2022/05/22 06:51:00;;;;;;;;;6.00;6.00;;;;;20.75;100.00;100105.50;6403967;22;45299;-94
2022/05/22 06:53:26;;;;;;;;;8.00;5.33;;;;;20.97;100.00;100112.47;6372055;22;45221;-93
2022/05/22 06:55:51;;;;;;;;;9.33;8.00;;;;;21.12;100.00;100122.16;6370343;22;52296;-91
2022/05/22 06:58:16;;;;;;;;;9.00;8.00;;;;;21.21;100.00;100130.06;6405884;22;45224;-92
2022/05/22 07:00:42;;;;;;;;;5.33;4.67;;;;;21.30;100.00;100130.88;6373367;22;55168;-93
2022/05/22 07:03:07;;;;;;;;;5.33;5.00;;;;;21.36;100.00;100133.50;6370386;22;57259;-92
2022/05/22 07:05:33;;;;;;;;;8.33;4.00;;;;;21.37;100.00;100135.25;6371779;22;45455;-93
2022/05/22 07:07:58;;;;;;;;;5.33;5.00;;;;;21.39;100.00;100143.28;6372494;22;46892;-92
2022/05/22 07:11:38;;;;;;;;;7.00;7.00;;;;;21.42;100.00;100144.13;6370178;22;45779;-93
2022/05/22 07:13:11;;;;;;;;;5.67;4.67;;;;;21.58;100.00;100143.06;6401063;22;45296;-95
2022/05/22 07:15:37;;;;;;;;;5.67;4.00;;;;;21.73;100.00;100137.56;6370976;22;45681;-92
2022/05/22 07:18:03;;;;;;;;;4.00;4.00;;;;;21.82;100.00;100133.94;6373479;22;48453;-93
2022/05/22 07:20:29;;;;;;;;;5.33;4.00;;;;;21.85;100.00;100151.72;6372250;22;45532;-91
2022/05/22 07:22:54;;;;;;;;;4.00;4.00;;;;;21.74;100.00;100155.38;6369910;22;45316;-91
2022/05/22 07:25:20;;;;;;;;;6.67;6.67;;;;;21.59;100.00;100112.81;6398528;22;45405;-93
2022/05/22 07:27:47;;;;;;;;;4.00;4.00;;;;;21.47;100.00;100111.13;6401849;22;46472;-92
2022/05/22 07:30:12;;;;;;;;;6.33;6.33;;;;;21.34;100.00;100164.66;6370469;22;45580;-92
2022/05/22 07:32:38;;;;;;;;;5.33;5.33;;;;;21.26;100.00;100174.53;6369731;22;45533;-94
2022/05/22 07:35:03;;;;;;;;;4.67;3.67;;;;;21.24;100.00;100154.94;6369905;22;45311;-94
2022/05/22 07:37:28;;;;;;;;;4.00;4.00;;;;;21.24;100.00;100158.50;6399340;22;45425;-91
2022/05/22 07:39:54;;;;;;;;;5.00;5.00;;;;;21.23;100.00;100143.41;6397461;22;57941;-92
2022/05/22 07:42:20;;;;;;;;;7.67;5.67;;;;;21.29;100.00;100146.00;6369858;22;45231;-90
2022/05/22 07:44:46;;;;;;;;;6.00;5.00;;;;;21.36;100.00;100146.84;6370328;22;45460;-94
2022/05/22 07:47:11;;;;;;;;;4.00;4.00;;;;;21.50;100.00;100145.81;6369103;22;47024;-90
2022/05/22 07:52:21;;;;;;;;;7.67;5.00;;;;;21.70;100.00;100142.06;6397901;22;45338;-91
2022/05/22 07:54:46;;;;;;;;;5.00;4.00;;;;;21.72;100.00;100119.78;6368456;22;45292;-91
2022/05/22 07:57:12;;;;;;;;;6.00;6.00;;;;;21.82;100.00;100135.72;6368045;22;46763;-90
2022/05/22 07:59:38;;;;;;;;;6.00;4.67;;;;;21.95;100.00;100125.78;6368699;22;45198;-92
2022/05/22 08:02:08;;;;;;;;;4.00;4.00;;;;;22.13;100.00;100121.13;6397083;22;45345;-92
2022/05/22 08:04:34;;;;;;;;;4.00;4.00;;;;;22.30;100.00;100115.53;6370064;22;45814;-94
2022/05/22 08:06:59;;;;;;;;;3.67;3.67;;;;;22.49;100.00;100093.91;6397340;22;46334;-94
2022/05/22 08:09:24;;;;;;;;;6.00;5.67;;;;;22.66;100.00;100082.94;6368955;22;45309;-92
2022/05/22 08:11:50;;;;;;;;;4.00;4.00;;;;;22.79;100.00;100086.34;6393024;22;45455;-94
2022/05/22 08:14:16;;;;;;;;;4.67;2.33;;;;;22.96;100.00;100086.03;6369220;22;45281;-92
2022/05/22 08:16:43;;;;;;;;;4.00;4.00;;;;;23.17;100.00;100083.00;6374329;22;47602;-92
2022/05/22 08:19:08;;;;;;;;;4.67;3.67;;;;;23.30;100.00;100081.00;6371507;22;45301;-92
2022/05/22 08:21:34;;;;;;;;;4.00;4.00;;;;;23.53;100.00;100075.22;6376044;22;45151;-94
2022/05/22 08:23:59;;;;;;;;;3.00;3.00;;;;;23.86;100.00;100065.69;6375054;22;45256;-93
2022/05/22 08:26:26;;;;;;;;;4.00;4.00;;;;;24.16;100.00;100073.06;6400549;22;45393;-93
2022/05/22 08:28:51;;;;;;;;;7.00;4.00;;;;;24.35;100.00;100087.00;6401736;22;45193;-91
2022/05/22 08:31:17;;;;;;;;;6.00;4.67;;;;;24.49;100.00;100086.66;6372644;22;45249;-92
2022/05/22 08:33:42;;;;;;;;;6.00;5.00;;;;;24.65;100.00;100088.97;6401994;22;45291;-91
2022/05/22 08:36:07;;;;;;;;;4.33;3.00;;;;;24.75;100.00;100095.00;6369888;22;51394;-91
2022/05/22 08:38:33;;;;;;;;;4.00;2.67;;;;;24.88;100.00;100101.81;6373240;22;45386;-91
2022/05/22 08:41:09;;;;;;;;;3.33;3.33;;;;;25.05;100.00;100116.63;6373440;22;45599;-92
2022/05/22 08:43:39;;;;;;;;;4.67;4.67;;;;;25.16;100.00;100113.69;6370248;22;45668;-92
2022/05/22 08:46:13;;;;;;;;;3.00;3.00;;;;;25.32;100.00;100116.84;6402103;22;46256;-91
2022/05/22 08:48:44;;;;;;;;;4.00;2.00;;;;;25.48;100.00;100121.81;6373390;22;45332;-91
2022/05/22 08:51:31;;;;;;;;;3.00;3.00;;;;;25.58;100.00;100124.25;6401416;22;45457;-91
2022/05/22 08:54:02;;;;;;;;;2.33;2.33;;;;;25.69;100.00;100129.31;6374847;22;45270;-91
2022/05/22 08:59:26;;;;;;;;;4.33;3.00;;;;;25.83;100.00;100132.53;6428484;22;44773;-92
2022/05/22 09:02:28;;;;;;;;;4.00;4.00;;;;;25.91;100.00;100132.31;6428332;22;44813;-92
2022/05/22 09:05:01;;;;;;;;;7.00;4.00;;;;;25.98;100.00;100123.13;6389884;22;44865;-93
2022/05/22 09:07:46;;;;;;;;;2.67;2.67;;;;;26.14;100.00;100136.13;6372224;22;47963;-92
2022/05/22 09:10:20;;;;;;;;;3.33;2.00;;;;;26.25;100.00;100138.50;6372191;22;45326;-92
2022/05/22 09:13:11;;;;;;;;;4.00;2.67;;;;;26.38;100.00;100141.69;6397679;22;45306;-91
2022/05/22 09:15:44;;;;;;;;;2.67;2.00;;;;;26.50;100.00;100159.28;6399217;22;45426;-92
2022/05/22 09:18:29;;;;;;;;;4.00;3.00;;;;;26.58;100.00;100159.06;6368927;22;47358;-92
2022/05/22 09:21:20;;;;;;;;;2.00;2.00;;;;;26.67;99.87;100164.13;6397788;22;45398;-91
2022/05/22 09:23:51;;;;;;;;;3.00;3.00;;;;;26.74;98.98;100170.22;6215661;22;45470;-91
2022/05/22 09:26:39;;;;;;;;;3.00;3.00;;;;;26.82;98.18;100169.09;6241491;22;45486;-92
2022/05/22 09:29:42;;;;;;;;;3.33;1.33;;;;;27.02;98.69;100154.09;6212950;22;48391;-92
2022/05/22 09:32:34;;;;;;;;;3.00;1.67;;;;;27.31;97.29;100166.63;6239376;22;45390;-92
2022/05/22 09:35:19;;;;;;;;;4.00;2.00;;;;;27.39;96.04;100187.03;6237180;22;45707;-94
2022/05/22 09:38:02;;;;;;;;;3.67;3.00;;;;;27.28;93.73;100209.81;6213512;22;45869;-94
2022/05/22 09:40:47;;;;;;;;;2.00;2.00;;;;;26.97;92.46;100229.63;6212477;22;46290;-91
2022/05/22 09:43:30;;;;;;;;;2.00;1.33;;;;;26.77;92.62;100223.97;6237272;22;45558;-91
2022/05/22 09:46:16;;;;;;;;;2.00;2.00;;;;;26.57;91.32;100237.16;6211348;22;45503;-91
2022/05/22 09:49:00;;;;;;;;;2.67;2.67;;;;;26.37;91.06;100230.50;6235329;22;45474;-90
2022/05/22 09:52:16;;;;;;;;;4.00;4.00;;;;;26.15;90.95;100217.69;6215912;22;47122;-95
2022/05/22 09:55:19;;;;;;;;;0.33;0.33;;;;;26.00;90.79;100209.13;6116339;23;45954;-93
2022/05/22 09:58:08;;;;;;;;;2.33;2.00;;;;;25.96;90.45;100191.31;6116346;23;45313;-91
2022/05/22 10:01:10;;;;;;;;;2.00;2.00;;;;;25.99;91.05;100170.63;6141461;22;45495;-92
2022/05/22 10:04:09;;;;;;;;;1.67;1.67;;;;;26.10;90.52;100190.94;6213016;22;47280;-92
2022/05/22 10:06:56;;;;;;;;;1.00;1.00;;;;;26.17;90.09;100186.25;6240217;22;45356;-92
2022/05/22 10:09:42;;;;;;;;;2.00;1.33;;;;;26.20;90.23;100181.66;6239782;22;45359;-90
2022/05/22 10:12:26;;;;;;;;;1.00;1.00;;;;;26.14;89.47;100194.41;6215147;22;45255;-92
2022/05/22 10:14:57;;;;;;;;;3.33;3.33;;;;;26.09;89.22;100190.03;6240157;22;46327;-93
2022/05/22 10:17:41;;;;;;;;;1.33;1.33;;;;;26.04;89.04;100191.09;6215547;22;45810;-95
2022/05/22 10:20:39;;;;;;;;;3.00;2.00;;;;;25.90;88.16;100262.25;6246114;22;45371;-95
2022/05/22 10:23:23;;;;;;;;;2.00;2.00;;;;;25.71;88.12;100484.91;6243599;22;45549;-96
2022/05/22 10:25:57;;;;;;;;;1.33;1.33;;;;;25.63;88.40;100488.66;6219355;22;46300;-91
2022/05/22 10:28:28;;;;;;;;;2.33;2.33;;;;;25.64;88.33;100494.91;6214861;22;45902;-96
2022/05/22 10:31:12;;;;;;;;;2.00;2.00;;;;;25.72;88.48;100508.19;6352162;22;45205;-94
2022/05/22 10:33:52;;;;;;;;;2.00;2.00;;;;;25.78;87.50;100525.06;6369741;22;45562;-86
2022/05/22 10:36:25;;;;;;;;;4.00;3.00;;;;;25.78;87.94;100516.13;6398635;22;45345;-91
2022/05/22 10:39:03;;;;;;;;;2.67;2.67;;;;;25.84;87.83;100518.69;6369755;22;45926;-92
2022/05/22 10:44:22;;;;;;;;;3.00;3.00;;;;;25.60;87.35;100488.72;6403027;22;45336;-90
2022/05/22 10:46:51;;;;;;;;;2.00;2.00;;;;;25.49;87.67;100501.47;6375434;22;48319;-90
2022/05/22 10:49:19;;;;;;;;;3.00;3.00;;;;;25.28;87.84;100488.47;6377319;22;45650;-91
2022/05/22 10:51:56;;;;;;;;;4.33;3.33;;;;;25.11;88.22;100468.22;6378652;22;45300;-92
2022/05/22 10:54:29;;;;;;;;;3.00;3.00;;;;;24.99;88.88;100453.22;6411842;22;45166;-91
2022/05/22 10:57:07;;;;;;;;;3.00;3.00;;;;;24.88;88.95;100439.13;6376174;22;48476;-91
2022/05/22 10:59:32;;;;;;;;;4.00;4.00;;;;;24.83;88.52;100436.53;6373773;22;45310;-92
2022/05/22 11:02:03;;;;;;;;;3.00;3.00;;;;;24.70;88.92;100425.13;6374739;22;45367;-91
2022/05/22 11:04:38;;;;;;;;;2.67;2.33;;;;;24.55;89.55;100410.22;6376163;22;45375;-93
2022/05/22 11:07:05;;;;;;;;;5.33;3.00;;;;;24.43;89.97;100376.47;6403072;22;46173;-91
2022/05/22 11:09:43;;;;;;;;;7.00;6.67;;;;;24.27;90.16;100360.66;6373882;22;45289;-87
2022/05/22 11:12:27;;;;;;;;;4.67;3.67;;;;;24.15;90.31;100355.47;6378142;22;45733;-92
2022/05/22 11:15:13;;;;;;;;;3.67;3.00;;;;;24.09;90.37;100356.47;6371654;22;45449;-89
2022/05/22 11:17:39;;;;;;;;;4.33;4.33;;;;;24.02;90.87;100347.63;6372677;22;48110;-92
2022/05/22 11:20:22;;;;;;;;;3.00;3.00;;;;;24.00;90.73;100344.09;6375331;22;45624;-92
2022/05/22 11:22:59;;;;;;;;;5.67;3.00;;;;;24.03;90.93;100343.16;6407523;22;45188;-93
2022/05/22 11:25:33;;;;;;;;;3.00;3.00;;;;;24.04;91.49;100319.03;6376052;22;45350;-92
2022/05/22 11:28:19;;;;;;;;;3.67;3.67;;;;;24.09;92.24;100290.34;6375738;22;47219;-91
2022/05/22 11:31:22;;;;;;;;;2.00;2.00;;;;;24.11;93.37;100229.53;6401514;22;45285;-93
2022/05/22 11:34:17;;;;;;;;;4.00;4.00;;;;;24.13;94.93;100173.22;6370118;22;45914;-90
2022/05/22 11:37:01;;;;;;;;;10.00;8.67;;;;;24.09;94.95;100164.38;6355438;22;45244;-92
2022/05/22 11:40:02;;;;;;;;;4.00;4.00;;;;;24.11;94.75;100192.00;6372855;22;48262;-94
2022/05/22 11:42:33;;;;;;;;;9.00;8.00;;;;;24.12;95.89;100155.38;6220190;22;45433;-93
2022/05/22 11:45:18;;;;;;;;;24.67;20.33;;;;;24.25;95.50;100179.25;6214366;22;45361;-93
2022/05/22 11:48:06;;;;;;;;;16.67;14.67;;;;;24.40;95.80;100187.00;6230807;22;45330;-92
2022/05/22 11:50:56;;;;;;;;;10.33;10.00;;;;;24.48;97.13;100130.47;6213150;22;48114;-92
2022/05/22 11:54:00;;;;;;;;;7.33;6.00;;;;;24.37;97.28;100108.41;6238298;22;45173;-92
2022/05/22 11:57:08;;;;;;;;;17.67;16.00;;;;;24.15;96.86;100101.66;6228667;22;45266;-92
2022/05/22 11:59:56;;;;;;;;;11.33;9.67;;;;;23.98;97.63;100077.91;6135767;23;44722;-94
2022/05/22 12:02:56;;;;;;;;;5.00;5.00;;;;;23.88;97.24;100101.34;6138524;23;45609;-93
2022/05/22 12:05:52;;;;;;;;;3.67;3.67;;;;;23.91;97.04;100117.38;6048173;23;45289;-92
2022/05/22 12:08:20;;;;;;;;;4.67;3.67;;;;;23.93;96.44;100142.34;6073688;23;45474;-91
2022/05/22 12:10:53;;;;;;;;;9.00;8.00;;;;;23.88;96.97;100107.59;6069178;23;45135;-89
2022/05/22 12:13:36;;;;;;;;;21.50;20.00;;;;;23.96;96.35;100130.69;6036739;23;47468;-89
2022/05/22 12:16:23;;;;;;;;;7.00;6.00;;;;;24.13;97.08;100130.31;6049014;23;46019;-89
2022/05/22 12:19:05;;;;;;;;;98.67;90.33;;;;;24.21;96.74;100132.84;6112847;23;45445;-87
2022/05/22 12:22:11;;;;;;;;;25.00;24.00;;;;;24.32;96.38;100157.66;6132245;23;45275;-89
2022/05/22 12:24:49;;;;;;;;;23.25;22.75;;;;;24.50;97.20;100130.47;6132087;23;47008;-88
2022/05/22 12:27:30;;;;;;;;;10.00;10.00;;;;;24.62;97.38;100114.06;6131091;23;45378;-90
2022/05/22 12:30:05;;;;;;;;;29.25;28.00;;;;;24.70;97.37;100124.63;6129459;23;45195;-87
2022/05/22 12:32:39;;;;;;;;;9.00;9.00;;;;;24.73;96.59;100159.44;6158142;23;45470;-89
2022/05/22 12:35:06;;;;;;;;;7.00;5.00;;;;;24.76;96.62;100159.38;6136736;22;45648;-89
2022/05/22 12:37:37;;;;;;;;;5.00;4.00;;;;;24.82;96.13;100170.84;6303005;22;45302;-89
2022/05/22 12:40:31;;;;;;;;;12.33;12.33;;;;;24.76;95.46;100188.00;6287568;22;45408;-88
2022/05/22 12:43:00;;;;;;;;;5.33;4.00;;;;;24.64;95.14;100178.41;6245428;22;45270;-89
2022/05/22 12:45:28;;;;;;;;;13.00;12.67;;;;;24.53;95.40;100165.25;6268164;22;47049;-89
2022/05/22 12:47:55;;;;;;;;;18.33;18.33;;;;;24.40;95.26;100178.06;6272688;22;45023;-89
2022/05/22 12:50:36;;;;;;;;;7.67;5.00;;;;;24.36;94.98;100187.97;6282988;22;45347;-89
2022/05/22 12:53:02;;;;;;;;;3.33;3.33;;;;;24.33;94.94;100188.00;6263685;22;44732;-88
2022/05/22 12:55:35;;;;;;;;;3.00;3.00;;;;;24.20;94.87;100165.91;6258732;22;46844;-87
2022/05/22 12:58:04;;;;;;;;;2.67;2.67;;;;;24.19;95.66;100166.84;6257902;22;44989;-88
2022/05/22 13:00:42;;;;;;;;;3.00;3.00;;;;;24.17;95.53;100174.03;6306968;22;45338;-88
2022/05/22 13:03:13;;;;;;;;;3.33;2.00;;;;;24.21;96.01;100165.00;6416062;22;45585;-87
2022/05/22 13:05:41;;;;;;;;;3.00;3.00;;;;;24.17;96.19;100164.16;6426880;22;45427;-87
2022/05/22 13:08:29;;;;;;;;;3.33;3.33;;;;;24.26;95.76;100181.91;6426008;22;44754;-88
2022/05/22 13:10:58;;;;;;;;;3.67;3.67;;;;;24.15;95.58;100174.06;6420481;22;45303;-87
2022/05/22 13:13:29;;;;;;;;;4.00;4.00;;;;;24.13;95.65;100169.63;6422493;22;45283;-88
2022/05/22 13:16:03;;;;;;;;;4.33;3.33;;;;;24.07;96.10;100144.72;6415882;22;45995;-89
2022/05/22 13:18:29;;;;;;;;;3.00;3.00;;;;;24.11;96.17;100141.09;6411124;22;45233;-88
2022/05/22 13:20:58;;;;;;;;;4.67;4.67;;;;;23.99;96.32;100130.63;6420374;22;45288;-87
2022/05/22 13:23:30;;;;;;;;;3.00;3.00;;;;;23.91;96.59;100101.31;6396124;22;45412;-87
2022/05/22 13:26:01;;;;;;;;;5.00;5.00;;;;;24.04;96.55;100125.16;6394892;22;46991;-87
2022/05/22 13:28:45;;;;;;;;;5.67;5.00;;;;;23.97;97.47;100069.00;6414890;22;45245;-88
2022/05/22 13:31:11;;;;;;;;;5.67;5.67;;;;;24.06;97.14;100089.38;6410307;22;45322;-87
2022/05/22 13:33:52;;;;;;;;;5.00;5.00;;;;;24.03;96.79;100097.47;6412258;22;45498;-87
2022/05/22 13:36:29;;;;;;;;;2.00;2.00;;;;;24.03;96.42;100129.63;6412680;22;48238;-88
2022/05/22 13:38:58;;;;;;;;;2.67;2.67;;;;;23.95;96.34;100120.84;6412445;22;45265;-89
2022/05/22 13:41:41;;;;;;;;;5.00;5.00;;;;;23.92;96.54;100105.72;6409021;22;44642;-88
2022/05/22 13:44:19;;;;;;;;;6.00;5.00;;;;;23.86;97.11;100085.28;6415589;22;45440;-88
2022/05/22 13:47:09;;;;;;;;;6.00;4.00;;;;;23.82;97.51;100056.81;6415351;22;46172;-88
2022/05/22 13:49:38;;;;;;;;;4.67;4.00;;;;;23.77;98.42;100010.47;6421940;22;44689;-88
2022/05/22 13:52:35;;;;;;;;;4.33;4.00;;;;;23.68;98.58;99984.78;6418662;22;45151;-86
2022/05/22 13:55:13;;;;;;;;;5.33;5.33;;;;;23.71;99.09;99983.84;6420508;22;45370;-88
2022/05/22 13:57:49;;;;;;;;;5.33;3.67;;;;;23.61;98.82;99962.59;6423755;22;46828;-89
2022/05/22 14:00:20;;;;;;;;;3.33;3.00;;;;;23.60;98.88;99957.28;6390727;22;45046;-87
2022/05/22 14:02:57;;;;;;;;;2.00;0.00;;;;;23.55;99.09;99960.91;6416389;22;45278;-87
2022/05/22 14:05:32;;;;;;;;;5.00;3.00;;;;;23.52;99.48;99968.16;6395852;22;44982;-89
2022/05/22 14:07:58;;;;;;;;;4.00;4.00;;;;;23.52;99.92;99952.09;6408645;22;48305;-89
2022/05/22 14:30:16;;;;;;;;;3.33;2.67;;;;;23.47;99.81;99905.75;6384698;22;45175;-89
2022/05/22 14:32:55;;;;;;;;;3.00;2.00;;;;;23.52;100.00;99887.81;6425960;22;44900;-92
2022/05/22 14:35:36;;;;;;;;;3.33;1.67;;;;;23.86;100.00;99873.59;6387557;22;45230;-91
2022/05/22 14:38:17;;;;;;;;;4.50;2.00;;;;;24.40;100.00;99889.31;6383880;22;44709;-87
2022/05/22 14:40:52;;;;;;;;;2.00;2.00;;;;;24.75;100.00;99897.31;6385945;22;47274;-90
2022/05/22 14:43:22;;;;;;;;;2.00;2.00;;;;;25.05;99.94;99946.66;6352767;22;45837;-89
2022/05/22 14:45:51;;;;;;;;;3.00;3.00;;;;;25.16;99.46;99966.00;6383682;22;45488;-88
2022/05/22 14:48:23;;;;;;;;;2.33;1.00;;;;;25.38;98.69;100012.88;6341884;22;45399;-88
2022/05/22 14:50:52;;;;;;;;;3.00;2.33;;;;;25.51;98.29;100016.94;6362647;22;46166;-88
2022/05/22 14:53:36;;;;;;;;;3.33;2.00;;;;;25.80;98.13;100033.16;6366000;22;45427;-88
2022/05/22 14:56:08;;;;;;;;;2.67;2.00;;;;;26.00;97.93;100039.75;6361689;22;45307;-87
2022/05/22 14:58:40;;;;;;;;;3.67;2.00;;;;;26.15;97.16;100059.03;6334792;22;45702;-88
2022/05/22 15:01:12;;;;;;;;;3.33;2.33;;;;;26.45;96.70;100085.91;6361783;22;48430;-86
2022/05/22 15:03:50;;;;;;;;;2.33;2.33;;;;;26.57;95.67;100108.84;6362392;22;45235;-89
2022/05/22 15:06:32;;;;;;;;;2.00;2.00;;;;;26.60;95.37;100116.81;6335581;22;45307;-87
2022/05/22 15:09:04;;;;;;;;;3.00;3.00;;;;;26.60;94.91;100122.19;6360692;22;45384;-88
2022/05/22 15:11:44;;;;;;;;;3.00;2.00;;;;;26.49;94.20;100129.75;6335456;22;48018;-89
2022/05/22 15:14:12;;;;;;;;;3.67;2.00;;;;;26.37;93.23;100156.06;6334924;22;45280;-88
2022/05/22 15:16:40;;;;;;;;;10.33;8.67;;;;;26.27;93.26;100143.81;6361962;22;45466;-88
2022/05/22 15:28:04;;;;;;;;;3.00;3.00;;;;;26.30;93.64;100122.22;6397188;22;45363;-89
2022/05/22 15:30:40;;;;;;;;;1.67;1.67;;;;;26.42;94.23;100124.53;6397387;22;45399;-88
2022/05/22 15:33:21;;;;;;;;;2.00;2.00;;;;;26.54;94.34;100109.81;6367071;22;47090;-88
2022/05/22 15:36:05;;;;;;;;;3.00;3.00;;;;;26.55;94.27;100108.91;6396388;22;45385;-89
2022/05/22 15:38:37;;;;;;;;;4.00;1.67;;;;;26.54;95.07;100079.38;6397707;22;45349;-89
2022/05/22 15:41:22;;;;;;;;;2.00;2.00;;;;;26.48;94.39;100099.28;6397681;22;45533;-88
2022/05/22 15:43:48;;;;;;;;;1.67;1.67;;;;;26.33;94.15;100103.31;6394742;22;48050;-88
2022/05/22 15:46:28;;;;;;;;;2.00;1.00;;;;;26.25;94.18;100098.16;6402252;22;45306;-88
2022/05/22 15:51:29;;;;;;;;;3.33;3.33;;;;;26.12;94.94;100057.31;6360969;22;45078;-87
2022/05/22 16:09:26;;;;;;;;;2.00;2.00;;;;;25.86;94.18;100049.13;6421532;22;45285;-88
2022/05/22 16:11:52;;;;;;;;;3.33;3.33;;;;;25.63;94.38;100036.31;6414063;22;45240;-88
2022/05/22 16:14:18;;;;;;;;;31.50;30.00;;;;;25.46;94.23;100028.75;6396793;22;46381;-88
2022/05/22 16:16:46;;;;;;;;;21.67;20.33;;;;;25.32;94.82;100000.50;6396914;22;45204;-88
2022/05/22 16:19:18;;;;;;;;;3.00;3.00;;;;;25.22;95.01;99991.81;6368259;22;45364;-90
2022/05/22 16:21:50;;;;;;;;;3.00;3.00;;;;;25.09;95.47;99968.00;6368622;22;45486;-87
2022/05/22 16:24:16;;;;;;;;;4.67;4.67;;;;;24.99;95.35;99964.66;6399559;22;46014;-88
2022/05/22 16:26:42;;;;;;;;;2.67;2.67;;;;;24.91;95.46;99947.00;6420608;22;45314;-88
2022/05/22 16:29:07;;;;;;;;;3.67;3.00;;;;;24.81;95.58;99928.47;6421982;22;45257;-88
2022/05/22 16:31:34;;;;;;;;;2.00;2.00;;;;;24.72;95.54;99923.34;6397439;22;45307;-89
2022/05/22 16:34:04;;;;;;;;;3.00;3.00;;;;;24.65;95.73;99910.09;6419516;22;46957;-91
2022/05/22 16:36:30;;;;;;;;;4.33;4.33;;;;;24.55;96.08;99885.34;6399133;22;45343;-91
2022/05/22 16:38:56;;;;;;;;;2.67;2.67;;;;;24.50;95.97;99881.00;6375311;22;45213;-90
2022/05/22 16:41:22;;;;;;;;;3.00;3.00;;;;;24.51;96.23;99863.97;6400049;22;45398;-91
2022/05/22 16:43:47;;;;;;;;;4.00;3.00;;;;;24.54;96.54;99855.84;6395377;22;47521;-91
2022/05/22 16:46:22;;;;;;;;;2.00;2.00;;;;;24.58;96.52;99853.97;6378736;22;45343;-90
2022/05/22 16:54:21;;;;;;;;;3.33;3.33;;;;;24.60;96.57;99844.09;6403009;22;44966;-93
2022/05/22 17:01:53;;;;;;;;;6.67;5.00;;;;;24.37;96.78;99810.72;6391878;22;45183;-91
2022/05/22 17:04:24;;;;;;;;;6.00;6.00;;;;;24.41;97.12;99823.13;6362683;22;47390;-93
2022/05/22 17:06:55;;;;;;;;;14.67;14.00;;;;;24.40;97.43;99810.66;6358545;22;44726;-92
2022/05/22 17:09:25;;;;;;;;;11.00;7.67;;;;;24.27;97.01;99785.97;6362322;22;45151;-93
2022/05/22 17:11:57;;;;;;;;;4.67;4.33;;;;;24.21;96.96;99774.47;6367182;22;44769;-89
2022/05/22 17:14:31;;;;;;;;;5.00;5.00;;;;;24.12;97.37;99782.78;6338885;22;47026;-93
2022/05/22 17:16:59;;;;;;;;;3.00;2.00;;;;;24.15;97.31;99773.75;6365135;22;45617;-94
2022/05/22 17:19:35;;;;;;;;;2.00;2.00;;;;;24.01;97.46;99764.28;6391894;22;44679;-92
2022/05/22 17:22:23;;;;;;;;;3.67;3.00;;;;;24.00;97.44;99770.56;6360478;22;44741;-95
2022/05/22 17:25:03;;;;;;;;;2.00;2.00;;;;;24.03;97.31;99793.72;6388894;22;47006;-91
2022/05/22 17:28:10;;;;;;;;;4.00;4.00;;;;;24.00;97.49;99792.88;6354017;22;45540;-89
2022/05/22 17:30:36;;;;;;;;;3.00;3.00;;;;;23.95;97.67;99780.50;6231387;22;45514;-89
2022/05/22 17:33:02;;;;;;;;;4.00;2.33;;;;;23.93;98.32;99768.97;6256813;22;45530;-90
2022/05/22 17:35:31;;;;;;;;;4.00;4.00;;;;;23.88;98.38;99758.38;6281979;22;45391;-89
2022/05/22 17:38:01;;;;;;;;;5.50;4.00;;;;;23.85;98.57;99739.69;6386176;22;45163;-90
2022/05/22 17:40:32;;;;;;;;;4.67;4.67;;;;;23.88;99.19;99737.81;6368895;22;45453;-92
2022/05/22 17:43:02;;;;;;;;;2.00;2.00;;;;;23.82;99.13;99721.00;6364613;22;45496;-91
2022/05/22 17:45:27;;;;;;;;;3.00;3.00;;;;;23.79;99.43;99705.91;6364222;22;47269;-88
2022/05/22 17:47:54;;;;;;;;;3.00;3.00;;;;;23.68;99.50;99689.25;6390347;22;45351;-91
2022/05/22 17:50:20;;;;;;;;;3.00;3.00;;;;;23.75;99.39;99706.91;6365646;22;45353;-89
2022/05/22 17:52:48;;;;;;;;;3.33;3.33;;;;;23.69;99.33;99701.69;6364162;22;45276;-89
2022/05/22 17:55:14;;;;;;;;;5.33;4.67;;;;;23.65;99.64;99701.81;6364062;22;47878;-89
2022/05/22 17:57:39;;;;;;;;;3.00;3.00;;;;;23.57;99.94;99682.38;6363454;22;45347;-89
2022/05/22 18:00:06;;;;;;;;;8.00;5.00;;;;;23.54;100.00;99661.91;6364957;22;45564;-91
2022/05/22 18:02:31;;;;;;;;;6.00;5.33;;;;;23.51;100.00;99637.88;6367797;22;45646;-89
2022/05/22 18:04:57;;;;;;;;;5.00;5.00;;;;;23.50;100.00;99630.75;6363793;22;47244;-89
2022/05/22 18:07:26;;;;;;;;;6.00;5.00;;;;;23.48;100.00;99619.19;6364429;22;45284;-89
2022/05/22 18:09:55;;;;;;;;;5.00;4.33;;;;;23.42;100.00;99603.28;6363587;22;45352;-91
2022/05/22 18:17:50;;;;;;;;;4.00;4.00;;;;;23.33;100.00;99589.22;6369424;22;45439;-89
2022/05/22 18:20:17;;;;;;;;;3.33;3.33;;;;;23.30;100.00;99585.72;6365187;22;45286;-89
2022/05/22 18:22:44;;;;;;;;;4.00;4.00;;;;;23.27;100.00;99577.81;6369729;22;45327;-89
2022/05/22 18:25:32;;;;;;;;;5.00;4.00;;;;;23.21;100.00;99565.47;6364931;22;47951;-90
2022/05/22 18:28:06;;;;;;;;;6.00;4.00;;;;;23.19;100.00;99568.16;6377801;22;45240;-89
2022/05/22 18:30:35;;;;;;;;;4.67;3.00;;;;;23.16;100.00;99559.34;6378737;22;45280;-88
2022/05/22 18:33:01;;;;;;;;;5.00;5.00;;;;;23.12;100.00;99561.22;6368014;22;45237;-89
2022/05/22 18:35:26;;;;;;;;;3.00;3.00;;;;;23.08;100.00;99554.19;6365427;22;46188;-89
2022/05/22 18:37:52;;;;;;;;;3.33;3.00;;;;;23.03;100.00;99561.47;6374140;22;45337;-90
2022/05/22 18:40:18;;;;;;;;;3.00;3.00;;;;;22.99;100.00;99547.28;6370077;22;45428;-89
2022/05/22 18:42:50;;;;;;;;;3.00;3.00;;;;;22.95;100.00;99551.84;6367710;22;45678;-89
2022/05/22 18:45:19;;;;;;;;;4.00;4.00;;;;;22.88;100.00;99537.72;6366958;22;47738;-88
2022/05/22 18:47:45;;;;;;;;;7.00;5.67;;;;;22.82;100.00;99532.53;6365021;22;45369;-90
2022/05/22 18:50:10;;;;;;;;;5.33;4.00;;;;;22.76;100.00;99524.66;6363313;22;45793;-90
2022/05/22 18:52:41;;;;;;;;;4.33;3.33;;;;;22.70;100.00;99519.47;6364623;22;45230;-92
2022/05/22 18:55:10;;;;;;;;;2.00;2.00;;;;;22.66;100.00;99518.63;6365063;22;47354;-91
2022/05/22 18:57:35;;;;;;;;;3.00;3.00;;;;;22.61;100.00;99518.75;6365567;22;45402;-92
2022/05/22 19:00:01;;;;;;;;;2.00;2.00;;;;;22.52;100.00;99506.47;6365826;22;45289;-91
2022/05/22 19:02:27;;;;;;;;;4.00;4.00;;;;;22.48;100.00;99507.47;6366336;22;45245;-92
2022/05/22 19:04:52;;;;;;;;;3.67;3.00;;;;;22.40;100.00;99496.09;6363389;22;48000;-91
2022/05/22 19:07:18;;;;;;;;;3.00;3.00;;;;;22.32;100.00;99489.13;6365021;22;45241;-93
2022/05/22 19:09:43;;;;;;;;;3.33;3.33;;;;;22.28;100.00;99498.16;6364919;22;45216;-90
2022/05/22 19:12:16;;;;;;;;;2.00;2.00;;;;;22.24;100.00;99508.97;6366818;22;45158;-89
2022/05/22 19:14:41;;;;;;;;;3.00;3.00;;;;;22.19;100.00;99512.59;6364597;22;47455;-90
2022/05/22 19:17:09;;;;;;;;;7.00;4.00;;;;;22.09;100.00;99509.25;6364487;22;45467;-90
2022/05/22 19:19:34;;;;;;;;;1.33;1.33;;;;;22.06;100.00;99522.69;6364154;22;45441;-91
2022/05/22 19:22:02;;;;;;;;;5.00;4.00;;;;;22.00;100.00;99517.47;6364966;22;45400;-89
2022/05/22 19:24:29;;;;;;;;;4.00;4.00;;;;;21.98;100.00;99522.84;6366050;22;47999;-91
2022/05/22 19:26:55;;;;;;;;;3.00;3.00;;;;;21.94;100.00;99520.28;6366879;22;46005;-90
